createdAt,value
2018-07-31T00:03:01.038Z,20.70
2018-07-31T00:08:06.077Z,20.60
2018-07-31T00:13:10.838Z,20.50
2018-07-31T00:18:16.379Z,20.30
2018-07-31T00:23:21.921Z,20.20
2018-07-31T00:28:26.768Z,19.90
2018-07-31T00:33:31.614Z,19.70
2018-07-31T00:38:36.277Z,19.70
2018-07-31T00:43:40.911Z,19.70
2018-07-31T00:48:45.619Z,19.70
2018-07-31T00:53:50.219Z,19.80
2018-07-31T00:58:54.949Z,20.00
2018-07-31T01:03:59.610Z,20.10
2018-07-31T01:09:06.450Z,20.10
2018-07-31T01:14:11.423Z,20.00
2018-07-31T01:19:16.155Z,19.80
2018-07-31T01:24:20.838Z,19.60
2018-07-31T01:29:25.432Z,19.40
2018-07-31T01:34:30.255Z,19.30
2018-07-31T01:39:34.891Z,18.90
2018-07-31T01:44:39.591Z,18.80
2018-07-31T01:49:45.235Z,18.80
2018-07-31T01:54:50.966Z,18.70
2018-07-31T01:59:55.601Z,18.50
2018-07-31T02:05:01.183Z,18.40
2018-07-31T02:10:06.298Z,18.30
2018-07-31T02:15:11.474Z,18.30
2018-07-31T02:20:16.387Z,18.30
2018-07-31T02:25:21.328Z,18.50
2018-07-31T02:30:26.135Z,18.70
2018-07-31T02:35:31.444Z,18.50
2018-07-31T02:40:36.348Z,18.20
2018-07-31T02:45:41.280Z,18.10
2018-07-31T02:50:46.202Z,18.00
2018-07-31T02:55:50.963Z,17.90
2018-07-31T03:00:55.687Z,17.80
2018-07-31T03:06:00.443Z,17.70
2018-07-31T03:11:05.893Z,17.60
2018-07-31T03:16:10.733Z,17.50
2018-07-31T03:21:15.485Z,17.40
2018-07-31T03:26:20.747Z,17.50
2018-07-31T03:31:26.039Z,17.50
2018-07-31T03:36:30.698Z,17.50
2018-07-31T03:41:35.844Z,17.50
2018-07-31T03:46:40.508Z,17.50
2018-07-31T03:51:45.589Z,17.50
2018-07-31T03:56:50.299Z,17.60
2018-07-31T04:01:55.840Z,17.60
2018-07-31T04:07:00.481Z,17.70
2018-07-31T04:12:05.185Z,17.80
2018-07-31T04:17:09.939Z,17.90
2018-07-31T04:22:14.621Z,18.00
2018-07-31T04:27:19.394Z,18.10
2018-07-31T04:32:30.881Z,18.30
2018-07-31T04:37:35.725Z,18.40
2018-07-31T04:42:40.644Z,18.60
2018-07-31T04:47:45.429Z,18.70
2018-07-31T04:52:50.138Z,18.70
2018-07-31T04:57:55.452Z,18.80
2018-07-31T05:03:00.320Z,19.00
2018-07-31T05:08:05.054Z,19.30
2018-07-31T05:13:10.494Z,19.40
2018-07-31T05:18:15.390Z,19.60
2018-07-31T05:23:20.120Z,19.80
2018-07-31T05:28:24.751Z,20.10
2018-07-31T05:33:29.633Z,20.20
2018-07-31T05:38:35.119Z,20.40
2018-07-31T05:43:39.969Z,20.70
2018-07-31T05:48:44.788Z,21.00
2018-07-31T05:53:49.898Z,21.40
2018-07-31T05:59:04.872Z,21.70
2018-07-31T06:04:16.228Z,21.90
2018-07-31T06:09:24.338Z,22.20
2018-07-31T06:14:30.266Z,22.50
2018-07-31T06:19:34.948Z,22.80
2018-07-31T06:29:43.846Z,22.90
2018-07-31T06:34:48.486Z,23.00
2018-07-31T06:39:54.353Z,23.10
2018-07-31T06:44:59.287Z,23.40
2018-07-31T06:50:04.358Z,23.70
2018-07-31T06:55:09.190Z,23.90
2018-07-31T07:00:15.338Z,24.10
2018-07-31T07:05:20.303Z,24.30
2018-07-31T07:10:25.749Z,24.40
2018-07-31T07:15:30.649Z,24.50
2018-07-31T07:20:35.524Z,24.60
2018-07-31T07:25:41.472Z,24.70
2018-07-31T07:30:46.182Z,25.00
2018-07-31T07:35:51.274Z,25.00
2018-07-31T07:40:56.179Z,24.90
2018-07-31T07:46:00.929Z,24.70
2018-07-31T07:51:07.014Z,24.80
2018-07-31T07:56:13.036Z,24.90
2018-07-31T08:01:17.800Z,25.10
2018-07-31T08:06:23.055Z,25.30
2018-07-31T08:11:27.661Z,25.30
2018-07-31T08:16:32.306Z,25.40
2018-07-31T08:21:37.680Z,25.80
2018-07-31T08:26:42.529Z,26.00
2018-07-31T08:31:47.368Z,26.10
2018-07-31T08:36:52.068Z,26.50
2018-07-31T08:41:56.794Z,26.80
2018-07-31T08:47:01.667Z,27.10
2018-07-31T08:52:06.337Z,27.30
2018-07-31T08:57:11.256Z,27.30
2018-07-31T09:02:16.108Z,27.20
2018-07-31T09:07:20.889Z,27.10
2018-07-31T09:12:25.878Z,27.50
2018-07-31T09:17:31.258Z,28.00
2018-07-31T09:22:35.735Z,28.00
2018-07-31T09:27:40.407Z,27.70
2018-07-31T09:32:50.144Z,27.90
2018-07-31T09:37:54.853Z,28.00
2018-07-31T09:42:59.685Z,28.00
2018-07-31T09:48:04.593Z,28.30
2018-07-31T09:53:09.491Z,28.60
2018-07-31T09:58:14.259Z,28.80
2018-07-31T10:03:19.275Z,29.00
2018-07-31T10:08:24.276Z,29.00
2018-07-31T10:13:30.478Z,29.10
2018-07-31T10:18:36.013Z,29.30
2018-07-31T10:23:40.852Z,29.80
2018-07-31T10:28:46.053Z,30.20
2018-07-31T10:33:50.881Z,29.70
2018-07-31T10:38:55.458Z,30.00
2018-07-31T10:44:00.168Z,30.10
2018-07-31T10:49:04.900Z,30.10
2018-07-31T10:54:09.570Z,30.40
2018-07-31T10:59:14.421Z,30.90
2018-07-31T11:04:19.402Z,31.30
2018-07-31T11:09:24.221Z,31.60
2018-07-31T11:14:29.008Z,31.90
2018-07-31T11:19:34.308Z,32.00
2018-07-31T11:24:39.090Z,32.50
2018-07-31T11:29:44.409Z,32.60
2018-07-31T11:34:49.331Z,32.60
2018-07-31T11:39:54.066Z,33.40
2018-07-31T11:44:58.915Z,33.40
2018-07-31T11:50:03.977Z,33.60
2018-07-31T11:55:08.821Z,34.50
2018-07-31T12:00:14.108Z,36.00
2018-07-31T12:05:19.318Z,36.60
2018-07-31T12:10:24.131Z,37.00
2018-07-31T12:15:28.872Z,38.50
2018-07-31T12:20:34.292Z,38.70
2018-07-31T12:25:39.032Z,39.60
2018-07-31T12:30:43.905Z,39.30
2018-07-31T12:35:48.728Z,39.60
2018-07-31T12:40:53.459Z,39.80
2018-07-31T12:45:58.184Z,40.70
2018-07-31T12:51:02.883Z,41.30
2018-07-31T12:56:08.255Z,41.10
2018-07-31T13:01:13.109Z,41.00
2018-07-31T13:06:17.686Z,41.20
2018-07-31T13:11:22.627Z,41.30
2018-07-31T13:16:27.311Z,40.00
2018-07-31T13:21:32.126Z,40.40
2018-07-31T13:26:37.116Z,40.50
2018-07-31T13:31:42.634Z,41.20
2018-07-31T13:36:47.907Z,42.10
2018-07-31T13:41:52.760Z,42.30
2018-07-31T13:46:58.035Z,42.20
2018-07-31T13:52:02.746Z,41.80
2018-07-31T13:57:07.652Z,41.50
2018-07-31T14:02:12.528Z,42.30
2018-07-31T14:07:17.274Z,42.20
2018-07-31T14:12:21.973Z,42.40
2018-07-31T14:17:26.676Z,42.40
2018-07-31T14:22:31.591Z,41.70
2018-07-31T14:27:36.457Z,41.90
2018-07-31T14:32:41.244Z,42.20
2018-07-31T14:37:46.183Z,43.10
2018-07-31T14:42:51.087Z,43.50
2018-07-31T14:47:57.203Z,43.60
2018-07-31T14:53:02.165Z,45.10
2018-07-31T14:58:07.062Z,43.30
2018-07-31T15:03:12.031Z,42.70
2018-07-31T15:08:16.753Z,42.90
2018-07-31T15:13:21.694Z,42.60
2018-07-31T15:18:26.942Z,42.60
2018-07-31T15:23:31.725Z,43.60
2018-07-31T15:28:36.496Z,43.80
2018-07-31T15:33:41.251Z,42.20
2018-07-31T15:38:45.976Z,43.10
2018-07-31T15:43:51.147Z,43.60
2018-07-31T15:48:55.800Z,43.70
2018-07-31T15:54:00.863Z,43.60
2018-07-31T15:59:06.086Z,43.70
2018-07-31T16:04:10.717Z,43.70
2018-07-31T16:09:16.287Z,44.20
2018-07-31T16:14:21.170Z,44.40
2018-07-31T16:19:26.269Z,42.90
2018-07-31T16:24:31.106Z,42.00
2018-07-31T16:29:35.765Z,42.20
2018-07-31T16:34:40.494Z,42.20
2018-07-31T16:39:45.216Z,42.20
2018-07-31T16:44:50.039Z,42.30
2018-07-31T16:49:54.890Z,40.70
2018-07-31T16:54:59.812Z,40.30
2018-07-31T17:00:05.160Z,40.40
2018-07-31T17:05:10.182Z,38.80
2018-07-31T17:10:15.030Z,36.80
2018-07-31T17:15:19.903Z,35.60
2018-07-31T17:20:25.246Z,35.00
2018-07-31T17:25:30.113Z,34.80
2018-07-31T17:30:36.046Z,34.40
2018-07-31T17:35:40.861Z,34.20
2018-07-31T17:40:45.599Z,33.90
2018-07-31T17:45:50.472Z,33.70
2018-07-31T17:50:55.282Z,33.60
2018-07-31T17:56:00.250Z,33.50
2018-07-31T18:01:05.050Z,33.40
2018-07-31T18:06:09.992Z,33.00
2018-07-31T18:11:15.181Z,32.60
2018-07-31T18:16:19.921Z,32.30
2018-07-31T18:21:24.626Z,31.90
2018-07-31T18:26:31.020Z,31.50
2018-07-31T18:36:40.577Z,30.80
2018-07-31T18:41:45.792Z,30.30
2018-07-31T18:46:50.643Z,29.70
2018-07-31T18:51:55.399Z,29.40
2018-07-31T18:57:00.130Z,29.40
2018-07-31T19:02:05.644Z,29.20
2018-07-31T19:07:10.476Z,28.60
2018-07-31T19:12:15.544Z,28.30
2018-07-31T19:17:20.423Z,28.20
2018-07-31T19:22:25.328Z,28.30
2018-07-31T19:27:30.139Z,28.00
2018-07-31T19:32:35.229Z,27.90
2018-07-31T19:37:40.372Z,28.10
2018-07-31T19:42:45.597Z,28.20
2018-07-31T19:47:51.051Z,28.10
2018-07-31T19:52:56.664Z,28.00
2018-07-31T19:58:01.502Z,27.90
2018-07-31T20:03:06.316Z,27.80
2018-07-31T20:08:11.980Z,27.60
2018-07-31T20:13:17.085Z,27.40
2018-07-31T20:18:21.786Z,27.20
2018-07-31T20:23:26.713Z,27.10
2018-07-31T20:33:35.556Z,27.00
2018-07-31T20:38:40.048Z,27.00
2018-07-31T20:43:45.049Z,27.00
2018-07-31T20:48:49.901Z,27.00
2018-07-31T20:53:54.693Z,26.90
2018-07-31T20:58:59.461Z,26.90
2018-07-31T21:09:10.917Z,26.90
2018-07-31T21:14:15.783Z,26.80
2018-07-31T21:19:20.631Z,26.70
2018-07-31T21:24:25.770Z,26.60
2018-07-31T21:29:31.559Z,26.40
2018-07-31T21:34:36.324Z,26.30
2018-07-31T21:39:41.418Z,26.30
2018-07-31T21:44:46.381Z,26.40
2018-07-31T21:49:51.967Z,26.30
2018-07-31T21:54:57.578Z,26.10
2018-07-31T22:00:02.437Z,25.90
2018-07-31T22:05:07.539Z,25.70
2018-07-31T22:10:12.801Z,25.50
2018-07-31T22:15:17.763Z,25.40
2018-07-31T22:20:22.401Z,25.40
2018-07-31T22:25:28.717Z,25.20
2018-07-31T22:30:33.526Z,25.10
2018-07-31T22:35:38.347Z,24.80
2018-07-31T22:40:43.191Z,24.70
2018-07-31T22:45:47.744Z,24.70
2018-07-31T22:50:52.562Z,24.60
2018-07-31T22:55:57.166Z,24.40
2018-07-31T23:01:01.925Z,24.30
2018-07-31T23:06:06.733Z,24.40
2018-07-31T23:11:11.678Z,24.70
2018-07-31T23:16:16.429Z,24.90
2018-07-31T23:21:21.487Z,24.90
2018-07-31T23:26:26.263Z,25.00
2018-07-31T23:31:31.142Z,25.00
2018-07-31T23:36:36.007Z,25.00
2018-07-31T23:41:41.645Z,24.90
2018-07-31T23:46:46.482Z,24.50
2018-07-31T23:51:51.208Z,24.40
2018-07-31T23:56:56.947Z,24.20
